Cape Texel — V7RC4 — position and weather

sailwx.info

Track history (hours):
 
Tides and Currents Weather Stations Pressure Air Temp Water Temp Dewpoint Dewpoint Depression Visibility Wind Speed Wind Dir Waves Ship Positions

Cape Texel

Last reported at 2015-May-22 11:20 UTC. Time now 2015-May-24 11:13 UTC.
Position S 13°00' W 038°15'.

Length 228 m; draft 11.8 m.

Type: Ship (hazmat cat A). MMSI: 538090383.

Date/timePositionNaut miles runAvg speedWind from/ knotsBaromVisibWave heightAir tempDewpointWater temp
2015-May-22 11:20S 13°00' W 038°15'1013.2
2015-May-22 10:33S 13°05' W 038°25'10 9.5
2015-May-22 09:33S 13°04' W 038°34'9 9.1
2015-May-22 08:33S 12°55' W 038°34'1 1.2
2015-May-22 07:33S 12°56' W 038°34'0 0.1
2015-May-22 06:33S 12°57' W 038°34'5 4.6
2015-May-22 05:33S 12°52' W 038°34'8 0.2
2015-May-20 10:07S 12°45' W 038°38'0 0.0
2015-May-19 14:28S 12°45' W 038°37'0 0.0
2015-May-19 05:16S 12°45' W 038°38'0 0.0
2015-May-19 03:07S 12°45' W 038°37'0 0.0
2015-May-19 02:19S 12°45' W 038°37'0 0.0
2015-May-19 01:26S 12°45' W 038°38'2 2.0
2015-May-19 00:33S 12°46' W 038°36'1211.6
2015-May-18 23:33S 12°57' W 038°33'1 1.0
2015-May-18 22:33S 12°58' W 038°33'0 0.0
2015-May-18 21:33S 12°58' W 038°33'0 0.2
2015-May-18 20:33S 12°58' W 038°33'0 0.1
2015-May-18 19:33S 12°58' W 038°33'0 0.0
2015-May-18 18:33S 12°58' W 038°33'0 0.0
2015-May-18 17:33S 12°58' W 038°33'0 0.0
2015-May-18 16:33S 12°58' W 038°33'0 0.0
2015-May-18 15:33S 12°58' W 038°33'0 0.0
2015-May-18 14:33S 12°58' W 038°33'0 0.0
2015-May-18 13:33S 12°58' W 038°33'0 0.1
2015-May-18 12:33S 12°58' W 038°33'0 0.1
2015-May-18 11:33S 12°58' W 038°33'0 0.0
2015-May-18 10:33S 12°58' W 038°33'0 0.0
2015-May-18 09:33S 12°58' W 038°33'0 0.0
2015-May-18 08:33S 12°58' W 038°33'1 1.0
2015-May-18 07:33S 12°57' W 038°32'1 1.0
2015-May-18 06:33S 12°58' W 038°33'7 6.7
2015-May-18 05:33S 13°04' W 038°34'1111.1
2015-May-18 04:33S 13°05' W 038°23'  
Track history (hours):
 
Tides and Currents Weather Stations Pressure Air Temp Water Temp Dewpoint Dewpoint Depression Visibility Wind Speed Wind Dir Waves Ship Positions

Cape Texel

Last reported at 2015-May-22 11:20 UTC. Time now 2015-May-24 11:13 UTC.
Position S 13°00' W 038°15'.

Length 228 m; draft 11.8 m.

Type: Ship (hazmat cat A). MMSI: 538090383.

Date/timePositionNaut miles runAvg speedWind from/ knotsBaromVisibWave heightAir tempDewpointWater temp
2015-May-22 11:20S 13°00' W 038°15'1013.2
2015-May-22 10:33S 13°05' W 038°25'10 9.5
2015-May-22 09:33S 13°04' W 038°34'9 9.1
2015-May-22 08:33S 12°55' W 038°34'1 1.2
2015-May-22 07:33S 12°56' W 038°34'0 0.1
2015-May-22 06:33S 12°57' W 038°34'5 4.6
2015-May-22 05:33S 12°52' W 038°34'8 0.2
2015-May-20 10:07S 12°45' W 038°38'0 0.0
2015-May-19 14:28S 12°45' W 038°37'0 0.0
2015-May-19 05:16S 12°45' W 038°38'0 0.0
2015-May-19 03:07S 12°45' W 038°37'0 0.0
2015-May-19 02:19S 12°45' W 038°37'0 0.0
2015-May-19 01:26S 12°45' W 038°38'2 2.0
2015-May-19 00:33S 12°46' W 038°36'1211.6
2015-May-18 23:33S 12°57' W 038°33'1 1.0
2015-May-18 22:33S 12°58' W 038°33'0 0.0
2015-May-18 21:33S 12°58' W 038°33'0 0.2
2015-May-18 20:33S 12°58' W 038°33'0 0.1
2015-May-18 19:33S 12°58' W 038°33'0 0.0
2015-May-18 18:33S 12°58' W 038°33'0 0.0
2015-May-18 17:33S 12°58' W 038°33'0 0.0
2015-May-18 16:33S 12°58' W 038°33'0 0.0
2015-May-18 15:33S 12°58' W 038°33'0 0.0
2015-May-18 14:33S 12°58' W 038°33'0 0.0
2015-May-18 13:33S 12°58' W 038°33'0 0.1
2015-May-18 12:33S 12°58' W 038°33'0 0.1
2015-May-18 11:33S 12°58' W 038°33'0 0.0
2015-May-18 10:33S 12°58' W 038°33'0 0.0
2015-May-18 09:33S 12°58' W 038°33'0 0.0
2015-May-18 08:33S 12°58' W 038°33'1 1.0
2015-May-18 07:33S 12°57' W 038°32'1 1.0
2015-May-18 06:33S 12°58' W 038°33'7 6.7
2015-May-18 05:33S 13°04' W 038°34'1111.1
2015-May-18 04:33S 13°05' W 038°23'  

Dump ship's entire track history